sensor_id;sensor_type;location;lat;lon;timestamp;P1;durP1;ratioP1;P2;durP2;ratioP2
30934;SDS011;51033;42.648;23.292;2023-06-10T00:02:10;4.72;;;4.28;;
30934;SDS011;51033;42.648;23.292;2023-06-10T00:04:35;5.40;;;4.25;;
30934;SDS011;51033;42.648;23.292;2023-06-10T00:07:04;6.20;;;4.70;;
30934;SDS011;51033;42.648;23.292;2023-06-10T00:09:37;5.00;;;4.20;;
30934;SDS011;51033;42.648;23.292;2023-06-10T00:12:04;5.05;;;4.40;;
30934;SDS011;51033;42.648;23.292;2023-06-10T00:14:32;7.80;;;4.88;;
30934;SDS011;51033;42.648;23.292;2023-06-10T00:16:58;5.40;;;4.45;;
30934;SDS011;51033;42.648;23.292;2023-06-10T00:19:24;4.53;;;4.13;;
30934;SDS011;51033;42.648;23.292;2023-06-10T00:21:51;8.80;;;4.50;;
30934;SDS011;51033;42.648;23.292;2023-06-10T00:24:17;4.70;;;4.18;;
30934;SDS011;51033;42.648;23.292;2023-06-10T00:26:44;7.50;;;4.90;;
30934;SDS011;51033;42.648;23.292;2023-06-10T00:29:09;5.78;;;5.03;;
30934;SDS011;51033;42.648;23.292;2023-06-10T00:31:35;7.22;;;6.10;;
30934;SDS011;51033;42.648;23.292;2023-06-10T00:34:02;7.93;;;5.68;;
30934;SDS011;51033;42.648;23.292;2023-06-10T00:36:27;9.48;;;7.13;;
30934;SDS011;51033;42.648;23.292;2023-06-10T00:38:53;11.27;;;6.20;;
30934;SDS011;51033;42.648;23.292;2023-06-10T00:41:18;8.45;;;6.05;;
30934;SDS011;51033;42.648;23.292;2023-06-10T00:43:44;8.23;;;5.88;;
30934;SDS011;51033;42.648;23.292;2023-06-10T00:46:11;16.33;;;6.53;;
30934;SDS011;51033;42.648;23.292;2023-06-10T00:48:37;10.88;;;6.28;;
30934;SDS011;51033;42.648;23.292;2023-06-10T00:51:04;9.85;;;6.40;;
30934;SDS011;51033;42.648;23.292;2023-06-10T00:53:30;11.70;;;7.57;;
30934;SDS011;51033;42.648;23.292;2023-06-10T00:55:57;9.98;;;7.10;;
30934;SDS011;51033;42.648;23.292;2023-06-10T00:58:23;9.93;;;5.68;;
30934;SDS011;51033;42.648;23.292;2023-06-10T01:00:49;7.90;;;5.32;;
30934;SDS011;51033;42.648;23.292;2023-06-10T01:03:14;9.25;;;6.13;;
30934;SDS011;51033;42.648;23.292;2023-06-10T01:05:42;7.50;;;6.70;;
30934;SDS011;51033;42.648;23.292;2023-06-10T01:08:22;9.52;;;7.47;;
30934;SDS011;51033;42.648;23.292;2023-06-10T01:11:00;10.80;;;6.25;;
30934;SDS011;51033;42.648;23.292;2023-06-10T01:13:29;9.10;;;6.10;;
30934;SDS011;51033;42.648;23.292;2023-06-10T01:15:56;9.65;;;6.57;;
30934;SDS011;51033;42.648;23.292;2023-06-10T01:18:22;9.90;;;6.50;;
30934;SDS011;51033;42.648;23.292;2023-06-10T01:20:48;8.50;;;6.18;;
30934;SDS011;51033;42.648;23.292;2023-06-10T01:23:14;7.40;;;6.10;;
30934;SDS011;51033;42.648;23.292;2023-06-10T01:25:53;8.02;;;5.97;;
30934;SDS011;51033;42.648;23.292;2023-06-10T01:28:35;8.27;;;6.53;;
30934;SDS011;51033;42.648;23.292;2023-06-10T01:34:07;8.05;;;6.38;;
30934;SDS011;51033;42.648;23.292;2023-06-10T01:36:35;10.93;;;7.20;;
30934;SDS011;51033;42.648;23.292;2023-06-10T01:39:02;8.70;;;6.50;;
30934;SDS011;51033;42.648;23.292;2023-06-10T01:41:29;6.85;;;5.97;;
30934;SDS011;51033;42.648;23.292;2023-06-10T01:43:56;8.70;;;6.28;;
30934;SDS011;51033;42.648;23.292;2023-06-10T01:46:21;8.00;;;7.20;;
30934;SDS011;51033;42.648;23.292;2023-06-10T01:48:47;9.13;;;6.75;;
30934;SDS011;51033;42.648;23.292;2023-06-10T01:51:13;8.27;;;6.45;;
30934;SDS011;51033;42.648;23.292;2023-06-10T01:53:39;8.13;;;6.28;;
30934;SDS011;51033;42.648;23.292;2023-06-10T01:56:04;9.27;;;6.50;;
30934;SDS011;51033;42.648;23.292;2023-06-10T01:58:30;6.80;;;6.00;;
30934;SDS011;51033;42.648;23.292;2023-06-10T02:00:55;8.82;;;6.65;;
30934;SDS011;51033;42.648;23.292;2023-06-10T02:03:21;9.35;;;6.30;;
30934;SDS011;51033;42.648;23.292;2023-06-10T02:05:46;7.40;;;6.45;;
30934;SDS011;51033;42.648;23.292;2023-06-10T02:08:11;6.97;;;5.32;;
30934;SDS011;51033;42.648;23.292;2023-06-10T02:10:37;5.95;;;5.35;;
30934;SDS011;51033;42.648;23.292;2023-06-10T02:13:02;6.43;;;5.10;;
30934;SDS011;51033;42.648;23.292;2023-06-10T02:15:28;8.13;;;5.35;;
30934;SDS011;51033;42.648;23.292;2023-06-10T02:17:53;8.43;;;4.70;;
30934;SDS011;51033;42.648;23.292;2023-06-10T02:20:19;5.60;;;4.88;;
30934;SDS011;51033;42.648;23.292;2023-06-10T02:22:45;7.97;;;4.85;;
30934;SDS011;51033;42.648;23.292;2023-06-10T02:25:11;8.43;;;5.82;;
30934;SDS011;51033;42.648;23.292;2023-06-10T02:27:36;7.80;;;4.95;;
30934;SDS011;51033;42.648;23.292;2023-06-10T02:30:02;11.05;;;5.20;;
30934;SDS011;51033;42.648;23.292;2023-06-10T02:32:27;7.28;;;4.85;;
30934;SDS011;51033;42.648;23.292;2023-06-10T02:34:53;7.40;;;4.57;;
30934;SDS011;51033;42.648;23.292;2023-06-10T02:37:19;5.45;;;4.90;;
30934;SDS011;51033;42.648;23.292;2023-06-10T02:39:45;5.90;;;3.58;;
30934;SDS011;51033;42.648;23.292;2023-06-10T02:42:10;4.60;;;4.13;;
30934;SDS011;51033;42.648;23.292;2023-06-10T02:44:36;4.60;;;4.20;;
30934;SDS011;51033;42.648;23.292;2023-06-10T02:47:01;7.65;;;4.28;;
30934;SDS011;51033;42.648;23.292;2023-06-10T02:49:30;6.13;;;3.90;;
30934;SDS011;51033;42.648;23.292;2023-06-10T02:51:55;5.72;;;4.38;;
30934;SDS011;51033;42.648;23.292;2023-06-10T02:54:22;4.43;;;3.85;;
30934;SDS011;51033;42.648;23.292;2023-06-10T02:56:48;5.90;;;4.70;;
30934;SDS011;51033;42.648;23.292;2023-06-10T02:59:14;5.28;;;4.43;;
30934;SDS011;51033;42.648;23.292;2023-06-10T03:01:39;8.48;;;4.63;;
30934;SDS011;51033;42.648;23.292;2023-06-10T03:04:05;4.10;;;3.70;;
30934;SDS011;51033;42.648;23.292;2023-06-10T03:06:31;4.15;;;3.45;;
30934;SDS011;51033;42.648;23.292;2023-06-10T03:09:00;4.63;;;3.80;;
30934;SDS011;51033;42.648;23.292;2023-06-10T03:11:26;8.30;;;3.83;;
30934;SDS011;51033;42.648;23.292;2023-06-10T03:13:52;3.45;;;3.15;;
30934;SDS011;51033;42.648;23.292;2023-06-10T03:16:18;4.50;;;3.63;;
30934;SDS011;51033;42.648;23.292;2023-06-10T03:18:44;6.45;;;3.25;;
30934;SDS011;51033;42.648;23.292;2023-06-10T03:21:09;4.38;;;3.42;;
30934;SDS011;51033;42.648;23.292;2023-06-10T03:23:35;5.10;;;3.90;;
30934;SDS011;51033;42.648;23.292;2023-06-10T03:26:00;8.23;;;3.17;;
30934;SDS011;51033;42.648;23.292;2023-06-10T03:28:26;5.20;;;3.05;;
30934;SDS011;51033;42.648;23.292;2023-06-10T03:30:52;5.57;;;3.75;;
30934;SDS011;51033;42.648;23.292;2023-06-10T03:33:17;5.68;;;3.78;;
30934;SDS011;51033;42.648;23.292;2023-06-10T03:35:43;6.72;;;3.80;;
30934;SDS011;51033;42.648;23.292;2023-06-10T03:38:08;8.75;;;3.53;;
30934;SDS011;51033;42.648;23.292;2023-06-10T03:40:33;6.07;;;3.83;;
30934;SDS011;51033;42.648;23.292;2023-06-10T03:43:00;8.63;;;4.75;;
30934;SDS011;51033;42.648;23.292;2023-06-10T03:45:25;7.65;;;4.45;;
30934;SDS011;51033;42.648;23.292;2023-06-10T03:47:53;8.23;;;5.20;;
30934;SDS011;51033;42.648;23.292;2023-06-10T03:50:18;5.38;;;4.78;;
30934;SDS011;51033;42.648;23.292;2023-06-10T03:52:44;7.53;;;4.85;;
30934;SDS011;51033;42.648;23.292;2023-06-10T03:55:10;5.38;;;4.85;;
30934;SDS011;51033;42.648;23.292;2023-06-10T03:57:36;6.43;;;5.05;;
30934;SDS011;51033;42.648;23.292;2023-06-10T04:00:02;5.38;;;4.90;;
30934;SDS011;51033;42.648;23.292;2023-06-10T04:02:33;9.80;;;5.43;;
30934;SDS011;51033;42.648;23.292;2023-06-10T04:04:59;7.18;;;6.00;;
30934;SDS011;51033;42.648;23.292;2023-06-10T04:07:25;7.70;;;5.53;;
30934;SDS011;51033;42.648;23.292;2023-06-10T04:09:50;11.70;;;5.72;;
30934;SDS011;51033;42.648;23.292;2023-06-10T04:12:15;6.70;;;4.80;;
30934;SDS011;51033;42.648;23.292;2023-06-10T04:14:41;5.60;;;5.10;;
30934;SDS011;51033;42.648;23.292;2023-06-10T04:17:07;6.43;;;5.20;;
30934;SDS011;51033;42.648;23.292;2023-06-10T04:19:33;6.82;;;5.57;;
30934;SDS011;51033;42.648;23.292;2023-06-10T04:22:00;6.97;;;5.68;;
30934;SDS011;51033;42.648;23.292;2023-06-10T04:24:27;6.45;;;4.53;;
30934;SDS011;51033;42.648;23.292;2023-06-10T04:26:53;7.63;;;5.25;;
30934;SDS011;51033;42.648;23.292;2023-06-10T04:29:18;6.75;;;5.90;;
30934;SDS011;51033;42.648;23.292;2023-06-10T04:31:43;8.70;;;6.38;;
30934;SDS011;51033;42.648;23.292;2023-06-10T04:34:11;7.95;;;7.10;;
30934;SDS011;51033;42.648;23.292;2023-06-10T04:36:36;7.25;;;6.47;;
30934;SDS011;51033;42.648;23.292;2023-06-10T04:39:02;8.55;;;6.40;;
30934;SDS011;51033;42.648;23.292;2023-06-10T04:41:27;8.80;;;7.90;;
30934;SDS011;51033;42.648;23.292;2023-06-10T04:43:53;9.80;;;6.80;;
30934;SDS011;51033;42.648;23.292;2023-06-10T04:46:18;8.95;;;8.05;;
30934;SDS011;51033;42.648;23.292;2023-06-10T04:48:44;11.05;;;7.15;;
30934;SDS011;51033;42.648;23.292;2023-06-10T04:51:09;10.18;;;7.63;;
30934;SDS011;51033;42.648;23.292;2023-06-10T04:53:35;10.85;;;8.93;;
30934;SDS011;51033;42.648;23.292;2023-06-10T04:56:00;9.63;;;8.25;;
30934;SDS011;51033;42.648;23.292;2023-06-10T04:58:26;10.90;;;9.10;;
30934;SDS011;51033;42.648;23.292;2023-06-10T05:00:51;13.15;;;9.68;;
30934;SDS011;51033;42.648;23.292;2023-06-10T05:03:16;11.40;;;8.63;;
30934;SDS011;51033;42.648;23.292;2023-06-10T05:05:42;10.95;;;9.70;;
30934;SDS011;51033;42.648;23.292;2023-06-10T05:08:07;12.18;;;8.82;;
30934;SDS011;51033;42.648;23.292;2023-06-10T05:10:33;12.18;;;10.63;;
30934;SDS011;51033;42.648;23.292;2023-06-10T05:12:59;10.60;;;9.32;;
30934;SDS011;51033;42.648;23.292;2023-06-10T05:15:24;9.88;;;8.75;;
30934;SDS011;51033;42.648;23.292;2023-06-10T05:17:50;11.88;;;9.98;;
30934;SDS011;51033;42.648;23.292;2023-06-10T05:20:15;12.00;;;10.30;;
30934;SDS011;51033;42.648;23.292;2023-06-10T05:22:41;11.75;;;10.55;;
30934;SDS011;51033;42.648;23.292;2023-06-10T05:25:06;10.40;;;9.40;;
30934;SDS011;51033;42.648;23.292;2023-06-10T05:27:32;10.93;;;9.82;;
30934;SDS011;51033;42.648;23.292;2023-06-10T05:29:57;14.35;;;9.45;;
30934;SDS011;51033;42.648;23.292;2023-06-10T05:32:23;11.30;;;9.55;;
30934;SDS011;51033;42.648;23.292;2023-06-10T05:34:48;10.30;;;9.30;;
30934;SDS011;51033;42.648;23.292;2023-06-10T05:37:14;13.35;;;8.48;;
30934;SDS011;51033;42.648;23.292;2023-06-10T05:39:39;10.70;;;9.52;;
30934;SDS011;51033;42.648;23.292;2023-06-10T05:42:06;10.70;;;8.55;;
30934;SDS011;51033;42.648;23.292;2023-06-10T05:44:32;13.68;;;8.80;;
30934;SDS011;51033;42.648;23.292;2023-06-10T05:46:57;14.68;;;8.93;;
30934;SDS011;51033;42.648;23.292;2023-06-10T05:49:23;13.60;;;8.68;;
30934;SDS011;51033;42.648;23.292;2023-06-10T05:51:49;10.27;;;8.77;;
30934;SDS011;51033;42.648;23.292;2023-06-10T05:54:14;11.05;;;9.27;;
30934;SDS011;51033;42.648;23.292;2023-06-10T05:56:40;9.88;;;8.88;;
30934;SDS011;51033;42.648;23.292;2023-06-10T05:59:05;10.38;;;7.72;;
30934;SDS011;51033;42.648;23.292;2023-06-10T06:01:31;11.48;;;8.45;;
30934;SDS011;51033;42.648;23.292;2023-06-10T06:03:56;9.23;;;8.20;;
30934;SDS011;51033;42.648;23.292;2023-06-10T06:06:22;16.23;;;10.63;;
30934;SDS011;51033;42.648;23.292;2023-06-10T06:08:48;16.65;;;9.30;;
30934;SDS011;51033;42.648;23.292;2023-06-10T06:11:13;16.75;;;10.38;;
30934;SDS011;51033;42.648;23.292;2023-06-10T06:13:39;14.40;;;10.07;;
30934;SDS011;51033;42.648;23.292;2023-06-10T06:16:04;11.98;;;9.52;;
30934;SDS011;51033;42.648;23.292;2023-06-10T06:18:29;16.00;;;9.85;;
30934;SDS011;51033;42.648;23.292;2023-06-10T06:20:55;12.02;;;7.78;;
30934;SDS011;51033;42.648;23.292;2023-06-10T06:23:20;11.57;;;9.18;;
30934;SDS011;51033;42.648;23.292;2023-06-10T06:25:46;15.63;;;9.38;;
30934;SDS011;51033;42.648;23.292;2023-06-10T06:28:11;13.57;;;8.60;;
30934;SDS011;51033;42.648;23.292;2023-06-10T06:30:36;12.18;;;8.60;;
30934;SDS011;51033;42.648;23.292;2023-06-10T06:33:02;16.23;;;9.65;;
30934;SDS011;51033;42.648;23.292;2023-06-10T06:35:27;11.43;;;8.10;;
30934;SDS011;51033;42.648;23.292;2023-06-10T06:37:52;11.60;;;8.38;;
30934;SDS011;51033;42.648;23.292;2023-06-10T06:40:18;12.50;;;8.20;;
30934;SDS011;51033;42.648;23.292;2023-06-10T06:42:44;9.95;;;8.32;;
30934;SDS011;51033;42.648;23.292;2023-06-10T06:45:09;8.48;;;7.00;;
30934;SDS011;51033;42.648;23.292;2023-06-10T06:47:35;10.07;;;7.55;;
30934;SDS011;51033;42.648;23.292;2023-06-10T06:50:00;10.05;;;7.88;;
30934;SDS011;51033;42.648;23.292;2023-06-10T06:52:26;12.48;;;8.52;;
30934;SDS011;51033;42.648;23.292;2023-06-10T06:54:51;11.98;;;7.55;;
30934;SDS011;51033;42.648;23.292;2023-06-10T06:57:16;12.65;;;8.57;;
30934;SDS011;51033;42.648;23.292;2023-06-10T06:59:42;11.57;;;7.60;;
30934;SDS011;51033;42.648;23.292;2023-06-10T07:02:07;13.68;;;8.45;;
30934;SDS011;51033;42.648;23.292;2023-06-10T07:04:33;11.88;;;7.78;;
30934;SDS011;51033;42.648;23.292;2023-06-10T07:06:58;9.02;;;6.47;;
30934;SDS011;51033;42.648;23.292;2023-06-10T07:09:23;12.45;;;8.25;;
30934;SDS011;51033;42.648;23.292;2023-06-10T07:11:49;11.15;;;9.02;;
30934;SDS011;51033;42.648;23.292;2023-06-10T07:14:14;13.27;;;8.05;;
30934;SDS011;51033;42.648;23.292;2023-06-10T07:16:40;11.60;;;7.65;;
30934;SDS011;51033;42.648;23.292;2023-06-10T07:19:05;7.88;;;6.60;;
30934;SDS011;51033;42.648;23.292;2023-06-10T07:21:31;10.00;;;6.90;;
30934;SDS011;51033;42.648;23.292;2023-06-10T07:23:57;11.13;;;6.15;;
30934;SDS011;51033;42.648;23.292;2023-06-10T07:26:23;7.05;;;5.93;;
30934;SDS011;51033;42.648;23.292;2023-06-10T07:28:48;7.90;;;6.82;;
30934;SDS011;51033;42.648;23.292;2023-06-10T07:31:13;6.65;;;4.43;;
30934;SDS011;51033;42.648;23.292;2023-06-10T07:33:39;6.35;;;5.25;;
30934;SDS011;51033;42.648;23.292;2023-06-10T07:36:05;9.52;;;4.85;;
30934;SDS011;51033;42.648;23.292;2023-06-10T07:38:31;9.90;;;6.40;;
30934;SDS011;51033;42.648;23.292;2023-06-10T07:40:56;8.32;;;7.10;;
30934;SDS011;51033;42.648;23.292;2023-06-10T07:43:23;6.47;;;5.85;;
30934;SDS011;51033;42.648;23.292;2023-06-10T07:45:49;6.63;;;5.32;;
30934;SDS011;51033;42.648;23.292;2023-06-10T07:48:15;8.95;;;5.60;;
30934;SDS011;51033;42.648;23.292;2023-06-10T07:50:41;11.10;;;5.45;;
30934;SDS011;51033;42.648;23.292;2023-06-10T07:53:07;5.97;;;4.32;;
30934;SDS011;51033;42.648;23.292;2023-06-10T07:55:32;8.05;;;4.80;;
30934;SDS011;51033;42.648;23.292;2023-06-10T07:57:58;10.57;;;4.65;;
30934;SDS011;51033;42.648;23.292;2023-06-10T08:00:23;7.30;;;4.85;;
30934;SDS011;51033;42.648;23.292;2023-06-10T08:02:49;8.57;;;4.90;;
30934;SDS011;51033;42.648;23.292;2023-06-10T08:05:15;8.68;;;5.70;;
30934;SDS011;51033;42.648;23.292;2023-06-10T08:07:41;6.22;;;5.05;;
30934;SDS011;51033;42.648;23.292;2023-06-10T08:10:06;9.43;;;5.63;;
30934;SDS011;51033;42.648;23.292;2023-06-10T08:12:35;13.23;;;4.63;;
30934;SDS011;51033;42.648;23.292;2023-06-10T08:15:01;6.25;;;4.60;;
30934;SDS011;51033;42.648;23.292;2023-06-10T08:17:30;6.53;;;3.70;;
30934;SDS011;51033;42.648;23.292;2023-06-10T08:19:56;4.88;;;4.38;;
30934;SDS011;51033;42.648;23.292;2023-06-10T08:22:21;5.32;;;3.13;;
30934;SDS011;51033;42.648;23.292;2023-06-10T08:24:47;6.90;;;3.63;;
30934;SDS011;51033;42.648;23.292;2023-06-10T08:27:12;8.60;;;4.45;;
30934;SDS011;51033;42.648;23.292;2023-06-10T08:29:39;5.10;;;3.88;;
30934;SDS011;51033;42.648;23.292;2023-06-10T08:32:05;4.40;;;3.80;;
30934;SDS011;51033;42.648;23.292;2023-06-10T08:34:33;6.82;;;4.13;;
30934;SDS011;51033;42.648;23.292;2023-06-10T08:37:00;6.47;;;3.97;;
30934;SDS011;51033;42.648;23.292;2023-06-10T08:39:25;4.45;;;3.58;;
30934;SDS011;51033;42.648;23.292;2023-06-10T08:44:32;7.38;;;3.95;;
30934;SDS011;51033;42.648;23.292;2023-06-10T08:47:05;9.13;;;3.72;;
30934;SDS011;51033;42.648;23.292;2023-06-10T08:49:38;5.75;;;3.78;;
30934;SDS011;51033;42.648;23.292;2023-06-10T08:52:06;6.60;;;3.92;;
30934;SDS011;51033;42.648;23.292;2023-06-10T08:54:33;8.73;;;3.65;;
30934;SDS011;51033;42.648;23.292;2023-06-10T08:57:02;5.78;;;3.83;;
30934;SDS011;51033;42.648;23.292;2023-06-10T08:59:30;7.90;;;4.05;;
30934;SDS011;51033;42.648;23.292;2023-06-10T09:01:56;3.28;;;2.97;;
30934;SDS011;51033;42.648;23.292;2023-06-10T09:04:23;4.43;;;4.03;;
30934;SDS011;51033;42.648;23.292;2023-06-10T09:06:49;3.60;;;2.72;;
30934;SDS011;51033;42.648;23.292;2023-06-10T09:09:16;3.13;;;2.70;;
30934;SDS011;51033;42.648;23.292;2023-06-10T09:11:43;4.45;;;3.30;;
30934;SDS011;51033;42.648;23.292;2023-06-10T09:14:08;5.28;;;3.15;;
30934;SDS011;51033;42.648;23.292;2023-06-10T09:16:34;4.45;;;3.97;;
30934;SDS011;51033;42.648;23.292;2023-06-10T09:18:59;6.95;;;4.22;;
30934;SDS011;51033;42.648;23.292;2023-06-10T09:21:25;5.60;;;3.40;;
30934;SDS011;51033;42.648;23.292;2023-06-10T09:23:51;6.47;;;3.70;;
30934;SDS011;51033;42.648;23.292;2023-06-10T09:26:17;6.57;;;4.15;;
30934;SDS011;51033;42.648;23.292;2023-06-10T09:28:52;7.07;;;3.75;;
30934;SDS011;51033;42.648;23.292;2023-06-10T09:31:27;6.25;;;3.72;;
30934;SDS011;51033;42.648;23.292;2023-06-10T09:33:53;6.32;;;4.57;;
30934;SDS011;51033;42.648;23.292;2023-06-10T09:36:22;4.85;;;4.35;;
30934;SDS011;51033;42.648;23.292;2023-06-10T09:38:49;4.32;;;3.60;;
30934;SDS011;51033;42.648;23.292;2023-06-10T09:41:16;5.30;;;4.80;;
30934;SDS011;51033;42.648;23.292;2023-06-10T09:43:42;5.82;;;4.10;;
30934;SDS011;51033;42.648;23.292;2023-06-10T09:46:18;7.35;;;4.28;;
30934;SDS011;51033;42.648;23.292;2023-06-10T09:48:45;4.13;;;3.67;;
30934;SDS011;51033;42.648;23.292;2023-06-10T09:51:12;4.97;;;3.45;;
30934;SDS011;51033;42.648;23.292;2023-06-10T09:53:38;6.20;;;4.25;;
30934;SDS011;51033;42.648;23.292;2023-06-10T09:56:04;4.93;;;3.90;;
30934;SDS011;51033;42.648;23.292;2023-06-10T09:58:37;4.68;;;3.95;;
30934;SDS011;51033;42.648;23.292;2023-06-10T10:01:13;4.38;;;3.78;;
30934;SDS011;51033;42.648;23.292;2023-06-10T10:03:44;5.13;;;4.03;;
30934;SDS011;51033;42.648;23.292;2023-06-10T10:06:14;6.18;;;3.47;;
30934;SDS011;51033;42.648;23.292;2023-06-10T10:08:40;4.90;;;4.18;;
30934;SDS011;51033;42.648;23.292;2023-06-10T10:11:06;3.53;;;3.20;;
30934;SDS011;51033;42.648;23.292;2023-06-10T10:13:33;4.85;;;4.22;;
30934;SDS011;51033;42.648;23.292;2023-06-10T10:16:01;6.28;;;3.70;;
30934;SDS011;51033;42.648;23.292;2023-06-10T10:18:31;6.60;;;4.32;;
30934;SDS011;51033;42.648;23.292;2023-06-10T10:21:00;6.28;;;3.92;;
30934;SDS011;51033;42.648;23.292;2023-06-10T10:23:32;6.45;;;4.28;;
30934;SDS011;51033;42.648;23.292;2023-06-10T10:26:04;4.95;;;3.55;;
30934;SDS011;51033;42.648;23.292;2023-06-10T10:28:37;7.53;;;4.15;;
30934;SDS011;51033;42.648;23.292;2023-06-10T10:31:10;4.78;;;3.63;;
30934;SDS011;51033;42.648;23.292;2023-06-10T10:33:40;6.82;;;3.35;;
30934;SDS011;51033;42.648;23.292;2023-06-10T10:36:11;5.72;;;3.63;;
30934;SDS011;51033;42.648;23.292;2023-06-10T10:38:37;3.75;;;3.45;;
30934;SDS011;51033;42.648;23.292;2023-06-10T10:41:03;3.58;;;2.65;;
30934;SDS011;51033;42.648;23.292;2023-06-10T10:43:30;4.00;;;3.30;;
30934;SDS011;51033;42.648;23.292;2023-06-10T10:45:59;4.00;;;3.10;;
30934;SDS011;51033;42.648;23.292;2023-06-10T10:48:26;3.22;;;2.92;;
30934;SDS011;51033;42.648;23.292;2023-06-10T10:50:58;4.57;;;3.33;;
30934;SDS011;51033;42.648;23.292;2023-06-10T10:53:24;4.60;;;3.35;;
30934;SDS011;51033;42.648;23.292;2023-06-10T10:56:00;4.15;;;2.95;;
30934;SDS011;51033;42.648;23.292;2023-06-10T10:58:29;7.40;;;3.55;;
30934;SDS011;51033;42.648;23.292;2023-06-10T11:00:55;3.95;;;2.67;;
30934;SDS011;51033;42.648;23.292;2023-06-10T11:03:20;3.13;;;2.70;;
30934;SDS011;51033;42.648;23.292;2023-06-10T11:05:46;4.72;;;2.90;;
30934;SDS011;51033;42.648;23.292;2023-06-10T11:08:13;4.20;;;2.92;;
30934;SDS011;51033;42.648;23.292;2023-06-10T11:10:40;3.38;;;3.08;;
30934;SDS011;51033;42.648;23.292;2023-06-10T11:15:32;3.15;;;2.85;;
30934;SDS011;51033;42.648;23.292;2023-06-10T11:28:41;3.45;;;2.90;;
30934;SDS011;51033;42.648;23.292;2023-06-10T11:31:30;3.97;;;2.78;;
30934;SDS011;51033;42.648;23.292;2023-06-10T11:33:56;3.95;;;2.72;;
30934;SDS011;51033;42.648;23.292;2023-06-10T11:36:23;4.93;;;3.70;;
30934;SDS011;51033;42.648;23.292;2023-06-10T11:38:50;5.65;;;3.65;;
30934;SDS011;51033;42.648;23.292;2023-06-10T11:41:20;5.35;;;3.15;;
30934;SDS011;51033;42.648;23.292;2023-06-10T11:43:46;4.65;;;3.42;;
30934;SDS011;51033;42.648;23.292;2023-06-10T11:46:12;5.05;;;3.75;;
30934;SDS011;51033;42.648;23.292;2023-06-10T11:48:39;7.10;;;4.28;;
30934;SDS011;51033;42.648;23.292;2023-06-10T11:51:13;5.00;;;3.20;;
30934;SDS011;51033;42.648;23.292;2023-06-10T11:53:38;5.63;;;3.45;;
30934;SDS011;51033;42.648;23.292;2023-06-10T11:56:04;4.88;;;3.90;;
30934;SDS011;51033;42.648;23.292;2023-06-10T11:58:29;8.75;;;4.32;;
30934;SDS011;51033;42.648;23.292;2023-06-10T12:00:55;4.28;;;3.58;;
30934;SDS011;51033;42.648;23.292;2023-06-10T12:03:26;5.18;;;3.75;;
30934;SDS011;51033;42.648;23.292;2023-06-10T12:05:58;6.60;;;3.70;;
30934;SDS011;51033;42.648;23.292;2023-06-10T12:08:24;5.40;;;3.85;;
30934;SDS011;51033;42.648;23.292;2023-06-10T12:10:50;4.72;;;3.42;;
30934;SDS011;51033;42.648;23.292;2023-06-10T12:13:16;5.13;;;3.83;;
30934;SDS011;51033;42.648;23.292;2023-06-10T12:15:44;4.55;;;3.63;;
30934;SDS011;51033;42.648;23.292;2023-06-10T12:18:20;5.13;;;3.70;;
30934;SDS011;51033;42.648;23.292;2023-06-10T12:20:46;6.63;;;4.03;;
30934;SDS011;51033;42.648;23.292;2023-06-10T12:23:13;7.85;;;3.85;;
30934;SDS011;51033;42.648;23.292;2023-06-10T12:25:39;6.20;;;3.55;;
30934;SDS011;51033;42.648;23.292;2023-06-10T12:28:16;5.55;;;3.85;;
30934;SDS011;51033;42.648;23.292;2023-06-10T12:30:42;4.15;;;3.25;;
30934;SDS011;51033;42.648;23.292;2023-06-10T12:33:15;5.38;;;4.03;;
30934;SDS011;51033;42.648;23.292;2023-06-10T12:35:47;4.93;;;3.17;;
30934;SDS011;51033;42.648;23.292;2023-06-10T12:38:14;6.80;;;3.50;;
30934;SDS011;51033;42.648;23.292;2023-06-10T12:40:46;7.15;;;4.03;;
30934;SDS011;51033;42.648;23.292;2023-06-10T12:43:12;5.65;;;3.47;;
30934;SDS011;51033;42.648;23.292;2023-06-10T12:45:38;4.88;;;3.25;;
30934;SDS011;51033;42.648;23.292;2023-06-10T12:48:11;9.82;;;3.83;;
30934;SDS011;51033;42.648;23.292;2023-06-10T12:50:44;7.20;;;3.45;;
30934;SDS011;51033;42.648;23.292;2023-06-10T12:53:15;6.65;;;3.08;;
30934;SDS011;51033;42.648;23.292;2023-06-10T12:55:43;5.82;;;3.92;;
30934;SDS011;51033;42.648;23.292;2023-06-10T12:58:10;6.35;;;3.38;;
30934;SDS011;51033;42.648;23.292;2023-06-10T13:00:35;3.25;;;2.75;;
30934;SDS011;51033;42.648;23.292;2023-06-10T13:03:01;5.40;;;3.05;;
30934;SDS011;51033;42.648;23.292;2023-06-10T13:05:27;6.32;;;3.42;;
30934;SDS011;51033;42.648;23.292;2023-06-10T13:07:53;4.95;;;2.97;;
30934;SDS011;51033;42.648;23.292;2023-06-10T13:10:20;4.00;;;2.97;;
30934;SDS011;51033;42.648;23.292;2023-06-10T13:12:46;6.47;;;3.08;;
30934;SDS011;51033;42.648;23.292;2023-06-10T13:15:11;4.53;;;2.70;;
30934;SDS011;51033;42.648;23.292;2023-06-10T13:17:37;3.13;;;2.70;;
30934;SDS011;51033;42.648;23.292;2023-06-10T13:20:04;5.28;;;3.08;;
30934;SDS011;51033;42.648;23.292;2023-06-10T13:22:31;6.25;;;2.60;;
30934;SDS011;51033;42.648;23.292;2023-06-10T13:25:01;4.93;;;2.92;;
30934;SDS011;51033;42.648;23.292;2023-06-10T13:27:31;8.85;;;3.22;;
30934;SDS011;51033;42.648;23.292;2023-06-10T13:29:57;3.75;;;2.72;;
30934;SDS011;51033;42.648;23.292;2023-06-10T13:32:22;7.65;;;3.47;;
30934;SDS011;51033;42.648;23.292;2023-06-10T13:34:48;4.45;;;3.45;;
30934;SDS011;51033;42.648;23.292;2023-06-10T13:37:14;4.03;;;3.25;;
30934;SDS011;51033;42.648;23.292;2023-06-10T13:39:42;6.30;;;3.40;;
30934;SDS011;51033;42.648;23.292;2023-06-10T13:42:07;6.07;;;3.53;;
30934;SDS011;51033;42.648;23.292;2023-06-10T13:44:33;5.45;;;3.17;;
30934;SDS011;51033;42.648;23.292;2023-06-10T13:47:01;5.57;;;3.22;;
30934;SDS011;51033;42.648;23.292;2023-06-10T13:49:30;4.28;;;3.35;;
30934;SDS011;51033;42.648;23.292;2023-06-10T13:51:56;7.50;;;3.85;;
30934;SDS011;51033;42.648;23.292;2023-06-10T13:54:22;7.53;;;3.38;;
30934;SDS011;51033;42.648;23.292;2023-06-10T13:56:47;3.28;;;2.88;;
30934;SDS011;51033;42.648;23.292;2023-06-10T13:59:13;5.28;;;3.33;;
30934;SDS011;51033;42.648;23.292;2023-06-10T14:01:38;5.20;;;3.40;;
30934;SDS011;51033;42.648;23.292;2023-06-10T14:04:05;3.63;;;2.83;;
30934;SDS011;51033;42.648;23.292;2023-06-10T14:06:31;5.70;;;3.55;;
30934;SDS011;51033;42.648;23.292;2023-06-10T14:08:58;4.47;;;3.45;;
30934;SDS011;51033;42.648;23.292;2023-06-10T14:11:24;7.80;;;3.97;;
30934;SDS011;51033;42.648;23.292;2023-06-10T14:13:49;4.60;;;3.40;;
30934;SDS011;51033;42.648;23.292;2023-06-10T14:16:14;5.47;;;2.97;;
30934;SDS011;51033;42.648;23.292;2023-06-10T14:18:40;4.82;;;4.25;;
30934;SDS011;51033;42.648;23.292;2023-06-10T14:21:05;4.18;;;2.97;;
30934;SDS011;51033;42.648;23.292;2023-06-10T14:23:31;4.57;;;3.58;;
30934;SDS011;51033;42.648;23.292;2023-06-10T14:25:56;4.38;;;3.83;;
30934;SDS011;51033;42.648;23.292;2023-06-10T14:28:21;4.82;;;3.83;;
30934;SDS011;51033;42.648;23.292;2023-06-10T14:30:49;6.35;;;4.32;;
30934;SDS011;51033;42.648;23.292;2023-06-10T14:33:14;9.40;;;4.00;;
30934;SDS011;51033;42.648;23.292;2023-06-10T14:35:40;12.27;;;5.20;;
30934;SDS011;51033;42.648;23.292;2023-06-10T14:38:05;8.38;;;4.50;;
30934;SDS011;51033;42.648;23.292;2023-06-10T14:40:31;4.95;;;3.53;;
30934;SDS011;51033;42.648;23.292;2023-06-10T14:42:57;7.60;;;3.80;;
30934;SDS011;51033;42.648;23.292;2023-06-10T14:45:22;5.32;;;3.63;;
30934;SDS011;51033;42.648;23.292;2023-06-10T14:47:48;5.35;;;3.08;;